createdAt,value
2022-12-25T00:02:26.818Z,5.40
2022-12-25T00:04:53.670Z,5.40
2022-12-25T00:07:20.361Z,5.40
2022-12-25T00:09:47.015Z,5.40
2022-12-25T00:12:13.758Z,5.30
2022-12-25T00:14:40.406Z,5.30
2022-12-25T00:17:07.027Z,5.30
2022-12-25T00:19:33.694Z,5.30
2022-12-25T00:22:00.349Z,5.30
2022-12-25T00:24:27.095Z,5.30
2022-12-25T00:26:53.821Z,5.40
2022-12-25T00:29:20.483Z,5.40
2022-12-25T00:31:47.247Z,5.40
2022-12-25T00:34:13.985Z,5.40
2022-12-25T00:36:42.234Z,5.40
2022-12-25T00:39:09.619Z,5.40
2022-12-25T00:41:54.897Z,5.40
2022-12-25T00:44:21.623Z,5.40
2022-12-25T00:46:48.268Z,5.40
2022-12-25T00:49:14.917Z,5.50
2022-12-25T00:51:41.663Z,5.40
2022-12-25T00:54:08.863Z,5.40
2022-12-25T00:56:35.516Z,5.50
2022-12-25T00:59:02.293Z,5.50
2022-12-25T01:01:29.008Z,5.50
2022-12-25T01:03:55.978Z,5.50
2022-12-25T01:06:22.635Z,5.50
2022-12-25T01:09:07.905Z,5.50
2022-12-25T01:11:34.793Z,5.50
2022-12-25T01:14:01.424Z,5.50
2022-12-25T01:16:28.836Z,5.50
2022-12-25T01:18:56.171Z,5.40
2022-12-25T01:21:23.574Z,5.40
2022-12-25T01:23:52.488Z,5.40
2022-12-25T01:26:21.890Z,5.40
2022-12-25T01:28:49.730Z,5.40
2022-12-25T01:31:18.428Z,5.40
2022-12-25T01:33:46.219Z,5.40
2022-12-25T01:36:19.780Z,5.40
2022-12-25T01:38:47.710Z,5.40
2022-12-25T01:41:15.458Z,5.40
2022-12-25T01:44:03.255Z,5.40
2022-12-25T01:46:30.910Z,5.50
2022-12-25T01:49:03.657Z,5.50
2022-12-25T01:51:47.261Z,5.60
2022-12-25T01:54:25.557Z,5.50
2022-12-25T01:56:55.260Z,5.50
2022-12-25T01:59:25.926Z,5.50
2022-12-25T02:01:53.379Z,5.50
2022-12-25T02:04:38.527Z,5.50
2022-12-25T02:07:19.408Z,5.50
2022-12-25T02:09:47.009Z,5.40
2022-12-25T02:12:32.645Z,5.40
2022-12-25T02:15:06.949Z,6.60
2022-12-25T02:17:47.467Z,5.40
2022-12-25T02:20:35.981Z,5.50
2022-12-25T02:23:27.385Z,5.40
2022-12-25T02:25:56.998Z,5.40
2022-12-25T02:28:35.819Z,5.40
2022-12-25T02:31:10.760Z,5.40
2022-12-25T02:34:02.871Z,5.40
2022-12-25T02:37:00.570Z,5.50
2022-12-25T02:39:57.950Z,5.50
2022-12-25T02:43:06.823Z,5.50
2022-12-25T02:45:54.212Z,5.60
2022-12-25T02:48:43.262Z,5.60
2022-12-25T02:51:32.954Z,5.70
2022-12-25T02:54:22.022Z,5.60
2022-12-25T02:57:08.874Z,5.70
2022-12-25T02:59:56.871Z,5.70
2022-12-25T03:02:43.368Z,5.70
2022-12-25T03:05:33.328Z,5.70
2022-12-25T03:08:06.427Z,5.80
2022-12-25T03:10:53.366Z,5.80
2022-12-25T03:13:24.427Z,5.90
2022-12-25T03:16:09.578Z,6.00
2022-12-25T03:18:36.397Z,6.00
2022-12-25T03:21:21.438Z,6.00
2022-12-25T03:24:12.349Z,6.00
2022-12-25T03:26:54.981Z,6.00
2022-12-25T03:29:51.284Z,6.10
2022-12-25T03:32:45.439Z,6.10
2022-12-25T03:35:24.452Z,6.50
2022-12-25T03:38:36.079Z,6.10
2022-12-25T03:41:36.362Z,6.10
2022-12-25T03:44:29.520Z,6.10
2022-12-25T03:47:58.411Z,6.10
2022-12-25T03:50:58.088Z,6.10
2022-12-25T03:53:48.660Z,6.20
2022-12-25T03:56:37.225Z,6.20
2022-12-25T03:59:23.991Z,6.20
2022-12-25T04:02:10.327Z,6.30
2022-12-25T04:04:56.024Z,6.30
2022-12-25T04:07:41.244Z,6.30
2022-12-25T04:10:27.283Z,6.50
2022-12-25T04:13:12.525Z,6.60
2022-12-25T04:15:58.277Z,6.60
2022-12-25T04:18:43.755Z,6.70
2022-12-25T04:21:28.941Z,6.60
2022-12-25T04:24:14.505Z,6.60
2022-12-25T04:26:59.871Z,6.60
2022-12-25T04:29:45.202Z,6.50
2022-12-25T04:32:30.825Z,6.50
2022-12-25T04:35:16.123Z,6.50
2022-12-25T04:37:42.738Z,6.50
2022-12-25T04:40:12.168Z,6.60
2022-12-25T04:42:38.862Z,6.60
2022-12-25T04:45:05.896Z,6.70
2022-12-25T04:47:33.199Z,6.70
2022-12-25T04:49:59.911Z,6.70
2022-12-25T04:52:26.708Z,6.70
2022-12-25T04:54:53.513Z,6.80
2022-12-25T04:57:20.229Z,6.80
2022-12-25T04:59:46.883Z,6.90
2022-12-25T05:02:13.583Z,6.90
2022-12-25T05:04:40.263Z,6.90
2022-12-25T05:07:06.873Z,6.90
2022-12-25T05:09:33.535Z,6.90
2022-12-25T05:12:00.265Z,6.90
2022-12-25T05:14:26.958Z,7.00
2022-12-25T05:16:53.684Z,7.00
2022-12-25T05:19:20.284Z,7.10
2022-12-25T05:21:46.976Z,7.10
2022-12-25T05:24:13.680Z,7.10
2022-12-25T05:26:40.314Z,7.10
2022-12-25T05:29:06.997Z,7.10
2022-12-25T05:31:33.812Z,7.20
2022-12-25T05:34:00.631Z,7.20
2022-12-25T05:36:27.310Z,7.20
2022-12-25T05:38:54.178Z,7.30
2022-12-25T05:41:20.975Z,7.30
2022-12-25T05:43:47.613Z,7.30
2022-12-25T05:46:14.548Z,7.40
2022-12-25T05:48:41.355Z,7.40
2022-12-25T05:51:10.880Z,7.40
2022-12-25T05:53:38.218Z,7.50
2022-12-25T05:56:06.925Z,7.50
2022-12-25T05:58:35.044Z,7.50
2022-12-25T06:01:02.227Z,7.60
2022-12-25T06:03:29.082Z,7.60
2022-12-25T06:05:55.830Z,7.70
2022-12-25T06:08:22.552Z,7.70
2022-12-25T06:10:49.415Z,7.70
2022-12-25T06:13:16.072Z,7.70
2022-12-25T06:15:42.762Z,7.80
2022-12-25T06:18:09.604Z,7.80
2022-12-25T06:20:39.479Z,7.80
2022-12-25T06:23:06.283Z,7.80
2022-12-25T06:25:33.024Z,7.80
2022-12-25T06:27:59.689Z,7.90
2022-12-25T06:30:26.801Z,7.90
2022-12-25T06:32:53.552Z,7.90
2022-12-25T06:35:20.207Z,7.90
2022-12-25T06:37:46.914Z,7.90
2022-12-25T06:40:13.872Z,7.90
2022-12-25T06:42:40.528Z,8.00
2022-12-25T06:45:07.666Z,8.00
2022-12-25T06:47:34.373Z,8.00
2022-12-25T06:50:00.992Z,8.00
2022-12-25T06:52:27.729Z,8.00
2022-12-25T06:54:54.462Z,8.00
2022-12-25T06:57:21.129Z,8.00
2022-12-25T06:59:54.579Z,8.00
2022-12-25T07:02:23.794Z,8.00
2022-12-25T07:04:51.273Z,8.00
2022-12-25T07:07:17.968Z,8.00
2022-12-25T07:09:44.672Z,8.00
2022-12-25T07:12:23.606Z,8.00
2022-12-25T07:14:53.418Z,8.00
2022-12-25T07:17:20.824Z,7.90
2022-12-25T07:19:47.520Z,8.10
2022-12-25T07:22:15.439Z,7.80
2022-12-25T07:24:42.437Z,7.90
2022-12-25T07:27:09.618Z,7.80
2022-12-25T07:29:36.280Z,7.80
2022-12-25T07:32:02.985Z,7.80
2022-12-25T07:34:29.708Z,7.80
2022-12-25T07:36:56.392Z,7.80
2022-12-25T07:39:23.766Z,7.80
2022-12-25T07:41:51.187Z,7.80
2022-12-25T07:44:18.240Z,7.80
2022-12-25T07:46:45.262Z,7.80
2022-12-25T07:49:12.404Z,7.80
2022-12-25T07:51:39.085Z,7.80
2022-12-25T07:54:05.805Z,7.80
2022-12-25T07:56:32.491Z,7.80
2022-12-25T07:58:59.188Z,7.80
2022-12-25T08:01:27.192Z,7.80
2022-12-25T08:03:56.606Z,7.80
2022-12-25T08:06:26.748Z,7.70
2022-12-25T08:08:53.604Z,7.70
2022-12-25T08:11:20.258Z,7.70
2022-12-25T08:13:46.941Z,7.70
2022-12-25T08:16:13.779Z,7.70
2022-12-25T08:18:40.668Z,7.70
2022-12-25T08:21:09.933Z,7.70
2022-12-25T08:23:39.325Z,7.70
2022-12-25T08:26:08.348Z,7.70
2022-12-25T08:28:35.945Z,7.70
2022-12-25T08:31:22.238Z,7.70
2022-12-25T08:33:50.515Z,7.80
2022-12-25T08:36:18.858Z,7.80
2022-12-25T08:38:46.197Z,7.90
2022-12-25T08:41:13.725Z,7.90
2022-12-25T08:43:41.080Z,7.90
2022-12-25T08:46:08.517Z,7.90
2022-12-25T08:48:35.609Z,7.90
2022-12-25T08:51:03.335Z,7.90
2022-12-25T08:53:30.051Z,8.00
2022-12-25T08:55:58.655Z,8.00
2022-12-25T08:58:25.915Z,8.00
2022-12-25T09:00:52.763Z,8.00
2022-12-25T09:03:19.545Z,8.10
2022-12-25T09:05:46.881Z,8.10
2022-12-25T09:08:13.643Z,8.10
2022-12-25T09:10:40.803Z,8.10
2022-12-25T09:13:07.867Z,8.20
2022-12-25T09:15:34.536Z,8.20
2022-12-25T09:18:01.261Z,8.20
2022-12-25T09:20:27.923Z,8.20
2022-12-25T09:22:54.534Z,8.20
2022-12-25T09:25:21.259Z,8.30
2022-12-25T09:27:47.927Z,8.30
2022-12-25T09:30:14.838Z,8.30
2022-12-25T09:32:41.514Z,8.30
2022-12-25T09:35:08.760Z,8.30
2022-12-25T09:37:35.862Z,8.30
2022-12-25T09:40:02.876Z,8.30
2022-12-25T09:42:32.370Z,8.40
2022-12-25T09:45:13.828Z,8.40
2022-12-25T09:47:44.076Z,8.40
2022-12-25T09:50:33.884Z,8.40
2022-12-25T09:53:06.528Z,8.40
2022-12-25T09:55:40.772Z,8.40
2022-12-25T09:58:13.546Z,9.10
2022-12-25T10:00:49.156Z,8.40
2022-12-25T10:03:34.601Z,8.50
2022-12-25T10:06:29.839Z,8.40
2022-12-25T10:09:16.770Z,8.50
2022-12-25T10:12:04.343Z,8.50
2022-12-25T10:14:52.397Z,8.50
2022-12-25T10:17:40.191Z,8.50
2022-12-25T10:20:35.168Z,8.50
2022-12-25T10:23:05.890Z,8.50
2022-12-25T10:25:32.882Z,8.50
2022-12-25T10:28:11.660Z,8.50
2022-12-25T10:30:42.795Z,8.50
2022-12-25T10:33:16.841Z,8.50
2022-12-25T10:35:44.151Z,8.90
2022-12-25T10:38:17.240Z,8.60
2022-12-25T10:41:02.756Z,8.60
2022-12-25T10:43:50.978Z,8.60
2022-12-25T10:46:19.192Z,8.60
2022-12-25T10:49:01.988Z,8.60
2022-12-25T10:51:39.204Z,8.60
2022-12-25T10:54:28.525Z,8.60
2022-12-25T10:56:58.105Z,8.60
2022-12-25T10:59:30.438Z,8.60
2022-12-25T11:02:10.706Z,8.60
2022-12-25T11:04:37.550Z,8.70
2022-12-25T11:07:07.095Z,8.70
2022-12-25T11:09:34.283Z,8.70
2022-12-25T11:12:01.299Z,8.70
2022-12-25T11:14:29.081Z,8.70
2022-12-25T11:16:55.941Z,8.70
2022-12-25T11:19:28.206Z,8.70
2022-12-25T11:21:57.302Z,8.70
2022-12-25T11:24:28.796Z,8.70
2022-12-25T11:27:02.371Z,8.70
2022-12-25T11:29:56.042Z,8.70
2022-12-25T11:32:28.858Z,8.70
2022-12-25T11:34:55.798Z,8.70
2022-12-25T11:37:45.327Z,8.70
2022-12-25T11:40:24.867Z,8.70
2022-12-25T11:42:55.779Z,8.70
2022-12-25T11:45:32.870Z,8.70
2022-12-25T11:48:07.161Z,8.70
2022-12-25T11:50:37.678Z,8.70
2022-12-25T11:53:18.645Z,8.60
2022-12-25T11:55:54.578Z,8.70
2022-12-25T11:58:36.216Z,8.70
2022-12-25T12:01:08.324Z,8.70
2022-12-25T12:03:40.413Z,8.70
2022-12-25T12:06:26.035Z,8.70
2022-12-25T12:09:05.103Z,8.70
2022-12-25T12:11:45.003Z,8.60
2022-12-25T12:14:49.982Z,8.70
2022-12-25T12:17:18.285Z,8.60
2022-12-25T12:19:45.334Z,8.70
2022-12-25T12:22:24.742Z,8.70
2022-12-25T12:25:04.503Z,8.70
2022-12-25T12:27:38.595Z,8.70
2022-12-25T12:30:21.455Z,8.70
2022-12-25T12:32:52.773Z,8.70
2022-12-25T12:35:27.738Z,8.70
2022-12-25T12:38:00.401Z,8.70
2022-12-25T12:40:39.286Z,8.70
2022-12-25T12:43:23.803Z,8.80
2022-12-25T12:45:56.949Z,8.80
2022-12-25T12:48:29.091Z,8.70
2022-12-25T12:51:04.179Z,8.80
2022-12-25T12:53:32.512Z,8.70
2022-12-25T12:56:16.790Z,8.70
2022-12-25T12:58:50.941Z,8.70
2022-12-25T13:01:26.924Z,8.60
2022-12-25T13:04:12.381Z,8.60
2022-12-25T13:06:57.954Z,8.60
2022-12-25T13:09:58.511Z,8.60
2022-12-25T13:12:25.592Z,8.50
2022-12-25T13:14:52.483Z,8.50
2022-12-25T13:17:22.630Z,8.50
2022-12-25T13:19:56.749Z,8.50
2022-12-25T13:22:32.753Z,8.40
2022-12-25T13:25:01.729Z,8.50
2022-12-25T13:27:30.866Z,8.40
2022-12-25T13:29:58.484Z,8.50
2022-12-25T13:32:33.283Z,8.40
2022-12-25T13:35:00.723Z,8.50
2022-12-25T13:37:30.238Z,8.40
2022-12-25T13:40:00.353Z,8.40
2022-12-25T13:42:30.523Z,8.40
2022-12-25T13:45:19.687Z,8.40
2022-12-25T13:47:51.391Z,8.30
2022-12-25T13:50:21.387Z,8.40
2022-12-25T13:52:48.280Z,8.30
2022-12-25T13:55:29.361Z,8.30
2022-12-25T13:57:59.449Z,8.30
2022-12-25T14:00:32.175Z,8.30
2022-12-25T14:02:59.509Z,8.30
2022-12-25T14:05:39.688Z,8.30
2022-12-25T14:08:35.455Z,8.30
2022-12-25T14:11:05.781Z,8.20
2022-12-25T14:13:37.484Z,8.20
2022-12-25T14:16:05.108Z,8.20
2022-12-25T14:18:32.340Z,8.20
2022-12-25T14:21:06.399Z,8.20
2022-12-25T14:23:47.722Z,8.20
2022-12-25T14:26:27.621Z,8.20
2022-12-25T14:29:12.227Z,8.20
2022-12-25T14:31:43.812Z,8.20
2022-12-25T14:34:16.631Z,8.20
2022-12-25T14:36:43.438Z,8.20
2022-12-25T14:39:36.744Z,8.20
2022-12-25T14:42:32.137Z,8.10
2022-12-25T14:45:18.732Z,8.20
2022-12-25T14:47:57.120Z,8.20
2022-12-25T14:50:41.566Z,8.20
2022-12-25T14:53:21.036Z,8.10
2022-12-25T14:55:53.572Z,8.10
2022-12-25T14:58:23.819Z,8.10
2022-12-25T15:00:57.505Z,8.10
2022-12-25T15:03:30.931Z,8.10
2022-12-25T15:06:05.663Z,8.10
2022-12-25T15:08:34.457Z,8.10
2022-12-25T15:11:03.206Z,8.10
2022-12-25T15:13:31.098Z,8.10
2022-12-25T15:16:08.785Z,8.10
2022-12-25T15:18:41.809Z,8.10
2022-12-25T15:21:20.003Z,8.00
2022-12-25T15:23:46.930Z,8.10
2022-12-25T15:26:14.715Z,8.00
2022-12-25T15:28:41.800Z,8.10
2022-12-25T15:31:34.270Z,8.00
2022-12-25T15:34:04.502Z,8.00
2022-12-25T15:36:31.518Z,8.10
2022-12-25T15:38:58.165Z,8.10
2022-12-25T15:41:50.691Z,8.10
2022-12-25T15:44:17.397Z,8.10
2022-12-25T15:46:45.827Z,8.10
2022-12-25T15:49:13.392Z,8.10
2022-12-25T15:51:41.215Z,8.10
2022-12-25T15:54:08.397Z,8.00
2022-12-25T15:56:45.029Z,8.00
2022-12-25T15:59:13.056Z,8.10
2022-12-25T16:01:44.597Z,8.00
2022-12-25T16:04:11.326Z,8.10
2022-12-25T16:06:38.017Z,8.00
2022-12-25T16:09:05.124Z,8.10
2022-12-25T16:11:31.794Z,8.10
2022-12-25T16:13:58.544Z,8.00
2022-12-25T16:16:25.762Z,8.00
2022-12-25T16:18:52.544Z,8.10
2022-12-25T16:21:20.985Z,8.10
2022-12-25T16:23:47.850Z,8.10
2022-12-25T16:26:14.811Z,8.00
2022-12-25T16:28:41.598Z,8.20
2022-12-25T16:31:08.412Z,8.10
2022-12-25T16:33:35.081Z,8.10
2022-12-25T16:36:01.707Z,8.10
2022-12-25T16:38:28.333Z,8.10
2022-12-25T16:40:57.243Z,8.10
2022-12-25T16:43:24.385Z,8.10
2022-12-25T16:45:51.556Z,8.10
2022-12-25T16:48:18.447Z,8.10
2022-12-25T16:50:45.328Z,8.10
2022-12-25T16:53:12.552Z,8.10
2022-12-25T16:55:39.215Z,8.10
2022-12-25T16:58:06.884Z,8.10
2022-12-25T17:00:33.644Z,8.10
2022-12-25T17:03:01.287Z,8.20
2022-12-25T17:05:28.151Z,8.10
2022-12-25T17:07:54.810Z,8.10
2022-12-25T17:10:21.575Z,8.10
2022-12-25T17:12:48.418Z,8.10
2022-12-25T17:15:15.140Z,8.10
2022-12-25T17:17:41.971Z,8.10
2022-12-25T17:20:08.980Z,8.10
2022-12-25T17:22:35.645Z,8.10
2022-12-25T17:25:02.403Z,8.10
2022-12-25T17:27:29.058Z,8.10
2022-12-25T17:29:55.816Z,8.10
2022-12-25T17:32:22.471Z,8.10
2022-12-25T17:34:49.447Z,8.20
2022-12-25T17:37:16.153Z,8.20
2022-12-25T17:39:42.754Z,8.10
2022-12-25T17:42:09.365Z,8.10
2022-12-25T17:44:36.013Z,8.10
2022-12-25T17:47:02.861Z,8.20
2022-12-25T17:49:29.656Z,8.20
2022-12-25T17:51:56.336Z,8.30
2022-12-25T17:54:23.058Z,8.20
2022-12-25T17:56:49.774Z,8.20
2022-12-25T17:59:18.795Z,8.20
2022-12-25T18:01:46.831Z,8.20
2022-12-25T18:04:13.880Z,8.20
2022-12-25T18:06:40.684Z,8.20
2022-12-25T18:09:07.938Z,8.20
2022-12-25T18:11:37.416Z,8.20
2022-12-25T18:14:05.724Z,8.20
2022-12-25T18:16:35.737Z,8.20
2022-12-25T18:19:02.856Z,8.10
2022-12-25T18:21:29.615Z,8.20
2022-12-25T18:23:56.330Z,8.10
2022-12-25T18:26:23.441Z,8.10
2022-12-25T18:28:50.410Z,8.10
2022-12-25T18:31:22.935Z,8.10
2022-12-25T18:33:51.457Z,8.10
2022-12-25T18:36:21.578Z,8.10
2022-12-25T18:38:50.176Z,8.10
2022-12-25T18:41:17.419Z,8.10
2022-12-25T18:43:52.840Z,8.10
2022-12-25T18:46:24.770Z,8.10
2022-12-25T18:48:52.546Z,8.10
2022-12-25T18:51:19.540Z,7.50
2022-12-25T18:53:46.445Z,8.10
2022-12-25T18:56:15.562Z,8.10
2022-12-25T18:58:42.566Z,8.10
2022-12-25T19:01:21.723Z,8.10
2022-12-25T19:03:50.039Z,8.10
2022-12-25T19:06:24.027Z,8.10
2022-12-25T19:08:50.862Z,8.10
2022-12-25T19:11:18.761Z,8.10
2022-12-25T19:13:45.795Z,8.10
2022-12-25T19:16:13.105Z,8.10
2022-12-25T19:18:40.285Z,8.10
2022-12-25T19:21:08.669Z,8.10
2022-12-25T19:23:36.592Z,8.10
2022-12-25T19:26:07.001Z,8.10
2022-12-25T19:28:34.022Z,8.10
2022-12-25T19:31:01.522Z,8.20
2022-12-25T19:33:30.246Z,8.10
2022-12-25T19:36:12.819Z,8.10
2022-12-25T19:38:39.842Z,8.10
2022-12-25T19:41:12.332Z,8.20
2022-12-25T19:43:40.397Z,8.20
2022-12-25T19:46:08.842Z,8.20
2022-12-25T19:48:35.936Z,8.20
2022-12-25T19:51:03.770Z,8.20
2022-12-25T19:53:30.864Z,8.20
2022-12-25T19:56:01.485Z,8.20
2022-12-25T19:58:28.205Z,8.20
2022-12-25T20:01:00.155Z,8.20
2022-12-25T20:03:27.419Z,8.20
2022-12-25T20:05:54.124Z,8.20
2022-12-25T20:08:20.877Z,8.50
2022-12-25T20:10:47.631Z,8.20
2022-12-25T20:13:14.384Z,8.20
2022-12-25T20:15:41.124Z,8.20
2022-12-25T20:18:07.880Z,8.20
2022-12-25T20:20:34.670Z,8.20
2022-12-25T20:23:01.408Z,8.20
2022-12-25T20:25:28.049Z,8.20
2022-12-25T20:27:54.825Z,8.10
2022-12-25T20:30:21.737Z,8.10
2022-12-25T20:32:50.710Z,8.20
2022-12-25T20:35:17.647Z,8.20
2022-12-25T20:37:44.539Z,8.20
2022-12-25T20:40:12.079Z,8.30
2022-12-25T20:42:38.769Z,8.20
2022-12-25T20:45:07.416Z,8.20
2022-12-25T20:47:34.872Z,8.20
2022-12-25T20:50:01.540Z,8.20
2022-12-25T20:52:28.371Z,8.20
2022-12-25T20:54:55.055Z,8.20
2022-12-25T20:57:21.827Z,8.20
2022-12-25T20:59:48.542Z,8.20
2022-12-25T21:02:35.760Z,8.20
2022-12-25T21:05:02.128Z,8.20
2022-12-25T21:07:28.817Z,8.20
2022-12-25T21:09:55.514Z,8.20
2022-12-25T21:12:22.202Z,8.20
2022-12-25T21:14:48.820Z,8.30
2022-12-25T21:17:15.518Z,8.10
2022-12-25T21:19:42.232Z,8.10
2022-12-25T21:22:08.964Z,8.10
2022-12-25T21:24:35.975Z,8.10
2022-12-25T21:27:03.125Z,8.10
2022-12-25T21:29:29.734Z,8.10
2022-12-25T21:32:15.394Z,8.70
2022-12-25T21:34:42.001Z,8.10
2022-12-25T21:37:08.612Z,8.10
2022-12-25T21:39:35.230Z,8.10
2022-12-25T21:42:04.660Z,8.10
2022-12-25T21:44:31.351Z,8.10
2022-12-25T21:46:58.114Z,8.10
2022-12-25T21:49:43.766Z,8.10
2022-12-25T21:52:10.842Z,8.10
2022-12-25T21:54:37.730Z,8.10
2022-12-25T21:57:04.528Z,8.10
2022-12-25T21:59:31.177Z,8.10
2022-12-25T22:01:59.250Z,8.10
2022-12-25T22:04:26.257Z,8.10
2022-12-25T22:07:11.441Z,8.10
2022-12-25T22:09:38.130Z,8.10
2022-12-25T22:12:26.030Z,8.10
2022-12-25T22:15:02.050Z,8.10
2022-12-25T22:17:49.484Z,8.10
2022-12-25T22:20:19.190Z,8.10
2022-12-25T22:22:46.062Z,8.10
2022-12-25T22:25:13.379Z,8.10
2022-12-25T22:27:41.456Z,8.10
2022-12-25T22:30:13.906Z,8.20
2022-12-25T22:32:41.312Z,8.20
2022-12-25T22:35:08.819Z,8.20
2022-12-25T22:37:36.136Z,8.20
2022-12-25T22:40:04.565Z,8.20
2022-12-25T22:42:31.514Z,8.20
2022-12-25T22:44:58.250Z,8.10
2022-12-25T22:47:25.010Z,8.20
2022-12-25T22:49:51.671Z,8.10
2022-12-25T22:52:18.451Z,8.10
2022-12-25T22:54:45.083Z,8.10
2022-12-25T22:57:11.682Z,8.10
2022-12-25T22:59:38.321Z,8.10
2022-12-25T23:02:05.044Z,8.10
2022-12-25T23:04:31.847Z,8.10
2022-12-25T23:06:58.548Z,8.20
2022-12-25T23:09:27.899Z,8.10
2022-12-25T23:11:56.361Z,8.20
2022-12-25T23:14:38.766Z,8.10
2022-12-25T23:17:29.905Z,8.10
2022-12-25T23:20:20.510Z,8.10
2022-12-25T23:23:06.029Z,8.10
2022-12-25T23:25:53.463Z,8.10
2022-12-25T23:28:40.753Z,9.00
2022-12-25T23:31:07.781Z,8.10
2022-12-25T23:33:34.471Z,8.10
2022-12-25T23:36:01.262Z,8.10
2022-12-25T23:38:27.902Z,8.10
2022-12-25T23:40:54.592Z,8.10
2022-12-25T23:43:21.281Z,8.10
2022-12-25T23:45:48.057Z,8.10
2022-12-25T23:48:14.801Z,8.10
2022-12-25T23:50:41.476Z,8.10
2022-12-25T23:53:08.103Z,8.10
2022-12-25T23:55:35.002Z,8.10
2022-12-25T23:58:03.796Z,8.10
